| time (UTC) | temp F | wind direction | speed MPH | gust MPH | rain 1hr in | rain 24hr in | rain mn in | humidity % | barometer mb |
| 20260906044003 | 57 | 37 | 1.0 | 1.0 | 0.00 | 0.00 | 0.00 | 99 | 1019.6 |
| 20260906043003 | 57 | 342 | 1.0 | 2.0 | 0.00 | 0.00 | 0.00 | 99 | 1019.6 |
| 20260906042004 | 58 | 31 | 1.0 | 2.0 | 0.00 | 0.00 | 0.00 | 99 | 1019.6 |
| 20260906041003 | 57 | 357 | 1.0 | 1.0 | 0.00 | 0.00 | 0.00 | 99 | 1019.4 |
| 20260906040004 | 58 | 351 | 0.0 | 1.0 | 0.00 | 0.00 | 0.00 | 99 | 1019.5 |
| 20260906035003 | 58 | 0 | 0.0 | 1.0 | 0.00 | 0.00 | 0.00 | 99 | 1019.5 |
| 20260906033004 | 58 | 6 | 0.0 | 1.0 | 0.00 | 0.00 | 0.00 | 99 | 1019.5 |
| 20260906032004 | 59 | 356 | 1.0 | 2.0 | 0.00 | 0.00 | 0.00 | 99 | 1019.3 |
| 20260906031003 | 59 | 339 | 1.0 | 1.0 | 0.00 | 0.00 | 0.00 | 99 | 1019.3 |
| 20260906030004 | 59 | 336 | 0.0 | 1.0 | 0.00 | 0.00 | 0.00 | 99 | 1019.3 |
| 20260906025003 | 60 | 1 | 1.0 | 1.0 | 0.00 | 0.00 | 0.00 | 98 | 1019.1 |
| 20260906024004 | 60 | 327 | 0.0 | 1.0 | 0.00 | 0.00 | 0.00 | 98 | 1019.2 |
| 20260906022004 | 61 | 17 | 1.0 | 1.0 | 0.00 | 0.00 | 0.00 | 97 | 1019.1 |
| 20260906020004 | 61 | 357 | 1.0 | 2.0 | 0.00 | 0.00 | 0.00 | 96 | 1019.0 |
| 20260906015004 | 62 | 325 | 0.0 | 2.0 | 0.00 | 0.00 | 0.00 | 95 | 1018.9 |
| 20260906012004 | 63 | 322 | 1.0 | 2.0 | 0.00 | 0.00 | 0.00 | 92 | 1018.6 |
| 20260906011003 | 64 | 330 | 1.0 | 1.0 | 0.00 | 0.00 | 0.00 | 91 | 1018.5 |
| 20260906010004 | 65 | 22 | 0.0 | 1.0 | 0.00 | 0.00 | 0.00 | 89 | 1018.3 |
| 20260906005004 | 66 | 35 | 0.0 | 1.0 | 0.00 | 0.00 | 0.00 | 88 | 1018.4 |
| 20260906004004 | 67 | 7 | 0.0 | 1.0 | 0.00 | 0.00 | 0.00 | 86 | 1018.3 |
| 20260906003003 | 68 | 36 | 0.0 | 1.0 | 0.00 | 0.00 | 0.00 | 84 | 1018.4 |
| 20260906002003 | 69 | 352 | 0.0 | 1.0 | 0.00 | 0.00 | 0.00 | 82 | 1018.3 |
| 20260906001004 | 70 | 11 | 0.0 | 1.0 | 0.00 | 0.00 | 0.00 | 78 | 1018.3 |
| 20260906000004 | 71 | 350 | 1.0 | 2.0 | 0.00 | 0.00 | 0.00 | 75 | 1018.2 |
| 20260905235004 | 72 | 8 | 1.0 | 2.0 | 0.00 | 0.00 | 0.00 | 73 | 1018.2 |
| 20260905234004 | 73 | 3 | 1.0 | 3.0 | 0.00 | 0.00 | 0.00 | 71 | 1018.2 |
| 20260905233003 | 74 | 309 | 1.0 | 2.0 | 0.00 | 0.00 | 0.00 | 69 | 1018.1 |
| 20260905232004 | 75 | 77 | 1.0 | 3.0 | 0.00 | 0.01 | 0.00 | 68 | 1018.3 |
| 20260905231004 | 75 | 47 | 1.0 | 3.0 | 0.00 | 0.02 | 0.00 | 66 | 1018.4 |
| 20260905225004 | 76 | 74 | 2.0 | 6.0 | 0.00 | 0.04 | 0.00 | 66 | 1018.4 |
| 20260905224004 | 77 | 99 | 2.0 | 5.0 | 0.00 | 0.04 | 0.00 | 65 | 1018.1 |
| 20260905223004 | 77 | 77 | 1.0 | 3.0 | 0.00 | 0.04 | 0.00 | 66 | 1018.2 |
| 20260905222003 | 77 | 36 | 1.0 | 1.0 | 0.00 | 0.04 | 0.00 | 66 | 1018.3 |
| 20260905221004 | 77 | 55 | 1.0 | 2.0 | 0.00 | 0.04 | 0.00 | 64 | 1018.2 |
| 20260905220004 | 77 | 107 | 0.0 | 2.0 | 0.00 | 0.04 | 0.00 | 63 | 1018.2 |
| 20260905214004 | 77 | 93 | 2.0 | 3.0 | 0.00 | 0.04 | 0.00 | 62 | 1018.1 |
| 20260905213004 | 78 | 24 | 1.0 | 2.0 | 0.00 | 0.04 | 0.00 | 62 | 1018.0 |
| 20260905212004 | 78 | 93 | 1.0 | 5.0 | 0.00 | 0.04 | 0.00 | 61 | 1018.0 |
| 20260905211004 | 80 | 135 | 2.0 | 5.0 | 0.00 | 0.04 | 0.00 | 57 | 1018.0 |
| 20260905205004 | 80 | 121 | 2.0 | 3.0 | 0.00 | 0.04 | 0.00 | 60 | 1018.0 |
| 20260905203004 | 79 | 36 | 1.0 | 5.0 | 0.00 | 0.04 | 0.00 | 60 | 1018.0 |
| 20260905202004 | 78 | 306 | 1.0 | 3.0 | 0.00 | 0.04 | 0.00 | 64 | 1018.2 |
| 20260905201004 | 80 | 214 | 0.0 | 3.0 | 0.00 | 0.04 | 0.00 | 60 | 1018.1 |
| 20260905200003 | 79 | 344 | 1.0 | 3.0 | 0.00 | 0.04 | 0.00 | 62 | 1018.2 |
| 20260905195004 | 81 | 346 | 1.0 | 3.0 | 0.00 | 0.04 | 0.00 | 59 | 1018.1 |
| 20260905194004 | 79 | 106 | 2.0 | 6.0 | 0.00 | 0.04 | 0.00 | 62 | 1018.3 |
| 20260905193003 | 79 | 0 | 2.0 | 5.0 | 0.00 | 0.04 | 0.00 | 63 | 1018.2 |
| 20260905192004 | 78 | 7 | 1.0 | 3.0 | 0.00 | 0.04 | 0.00 | 63 | 1018.1 |
| 20260905190004 | 78 | 346 | 1.0 | 5.0 | 0.00 | 0.04 | 0.00 | 64 | 1018.3 |
| 20260905185003 | 78 | 346 | 2.0 | 5.0 | 0.00 | 0.04 | 0.00 | 64 | 1018.2 |
| 20260905184004 | 80 | 277 | 1.0 | 5.0 | 0.00 | 0.04 | 0.00 | 64 | 1018.5 |
| 20260905183004 | 79 | 27 | 2.0 | 3.0 | 0.00 | 0.04 | 0.00 | 65 | 1018.5 |
| 20260905182004 | 76 | 1 | 1.0 | 3.0 | 0.00 | 0.04 | 0.00 | 70 | 1018.4 |
| 20260905181004 | 79 | 339 | 1.0 | 5.0 | 0.00 | 0.04 | 0.00 | 67 | 1018.3 |
| 20260905180004 | 77 | 329 | 1.0 | 6.0 | 0.00 | 0.04 | 0.00 | 70 | 1018.5 |
| 20260905175004 | 77 | 91 | 2.0 | 7.0 | 0.00 | 0.04 | 0.00 | 68 | 1018.4 |
| 20260905174004 | 77 | 359 | 2.0 | 3.0 | 0.00 | 0.04 | 0.00 | 68 | 1018.5 |
| 20260905172004 | 76 | 66 | 1.0 | 6.0 | 0.00 | 0.04 | 0.00 | 71 | 1018.8 |
| 20260905171004 | 76 | 7 | 2.0 | 5.0 | 0.00 | 0.04 | 0.00 | 70 | 1019.1 |
| 20260905170004 | 76 | 283 | 2.0 | 5.0 | 0.00 | 0.04 | 0.00 | 71 | 1019.1 |
| 20260905165004 | 75 | 122 | 2.0 | 5.0 | 0.00 | 0.04 | 0.00 | 72 | 1019.1 |
| 20260905164004 | 75 | 118 | 2.0 | 7.0 | 0.00 | 0.04 | 0.00 | 72 | 1019.2 |
| 20260905163004 | 75 | 351 | 2.0 | 3.0 | 0.00 | 0.04 | 0.00 | 74 | 1019.3 |
| 20260905162004 | 75 | 180 | 2.0 | 5.0 | 0.00 | 0.04 | 0.00 | 73 | 1019.1 |
| 20260905161004 | 76 | 92 | 1.0 | 5.0 | 0.00 | 0.04 | 0.00 | 72 | 1019.2 |
| 20260905160004 | 74 | 359 | 2.0 | 8.0 | 0.00 | 0.04 | 0.00 | 75 | 1019.2 |
| 20260905155004 | 74 | 163 | 2.0 | 5.0 | 0.00 | 0.04 | 0.00 | 76 | 1019.0 |
| 20260905154004 | 74 | 0 | 2.0 | 3.0 | 0.00 | 0.04 | 0.00 | 76 | 1018.9 |
| 20260905153004 | 73 | 337 | 1.0 | 5.0 | 0.00 | 0.04 | 0.00 | 77 | 1018.9 |
| 20260905152004 | 73 | 23 | 1.0 | 3.0 | 0.00 | 0.04 | 0.00 | 77 | 1018.9 |
| 20260905151003 | 72 | 23 | 2.0 | 5.0 | 0.00 | 0.04 | 0.00 | 81 | 1018.7 |
| 20260905150004 | 72 | 333 | 2.0 | 3.0 | 0.00 | 0.04 | 0.00 | 83 | 1018.5 |
| 20260905144004 | 70 | 58 | 1.0 | 3.0 | 0.00 | 0.04 | 0.00 | 84 | 1018.8 |
| 20260905143004 | 68 | 46 | 2.0 | 3.0 | 0.00 | 0.04 | 0.00 | 87 | 1018.8 |
| 20260905142004 | 67 | 19 | 1.0 | 2.0 | 0.00 | 0.04 | 0.00 | 89 | 1019.0 |
| 20260905140004 | 69 | 8 | 2.0 | 3.0 | 0.00 | 0.04 | 0.00 | 86 | 1019.0 |
| 20260905135004 | 68 | 26 | 1.0 | 2.0 | 0.00 | 0.04 | 0.00 | 86 | 1019.0 |
| 20260905134004 | 69 | 3 | 1.0 | 3.0 | 0.00 | 0.04 | 0.00 | 86 | 1018.8 |
| 20260905133004 | 68 | 18 | 1.0 | 2.0 | 0.00 | 0.04 | 0.00 | 87 | 1018.5 |
| 20260905132004 | 66 | 349 | 1.0 | 2.0 | 0.00 | 0.04 | 0.00 | 90 | 1018.7 |
| 20260905131004 | 67 | 342 | 1.0 | 2.0 | 0.00 | 0.04 | 0.00 | 90 | 1018.4 |
| 20260905125004 | 63 | 20 | 1.0 | 3.0 | 0.00 | 0.04 | 0.00 | 99 | 1018.1 |
| 20260905124004 | 61 | 79 | 2.0 | 3.0 | 0.00 | 0.04 | 0.00 | 99 | 1018.0 |
| 20260905123004 | 61 | 292 | 1.0 | 3.0 | 0.00 | 0.04 | 0.00 | 99 | 1017.9 |
| 20260905122003 | 61 | 354 | 1.0 | 5.0 | 0.00 | 0.04 | 0.00 | 99 | 1017.7 |
| 20260905121004 | 61 | 72 | 2.0 | 5.0 | 0.00 | 0.04 | 0.00 | 99 | 1017.6 |
| 20260905120003 | 61 | 43 | 1.0 | 3.0 | 0.00 | 0.04 | 0.00 | 99 | 1017.6 |
| 20260905115003 | 61 | 41 | 2.0 | 3.0 | 0.00 | 0.04 | 0.00 | 99 | 1017.5 |
| 20260905114003 | 61 | 38 | 1.0 | 3.0 | 0.00 | 0.04 | 0.00 | 99 | 1017.5 |
| 20260905113004 | 61 | 18 | 1.0 | 3.0 | 0.00 | 0.04 | 0.00 | 99 | 1017.3 |
| 20260905112004 | 61 | 47 | 1.0 | 3.0 | 0.00 | 0.04 | 0.00 | 99 | 1017.1 |
| 20260905111004 | 61 | 25 | 1.0 | 3.0 | 0.00 | 0.04 | 0.00 | 99 | 1017.4 |
| 20260905110004 | 61 | 20 | 1.0 | 2.0 | 0.00 | 0.04 | 0.00 | 99 | 1017.2 |
| 20260905105003 | 61 | 11 | 2.0 | 5.0 | 0.00 | 0.04 | 0.00 | 99 | 1017.2 |
| 20260905104004 | 61 | 1 | 1.0 | 3.0 | 0.00 | 0.04 | 0.00 | 99 | 1017.1 |
| 20260905101004 | 62 | 0 | 1.0 | 2.0 | 0.00 | 0.04 | 0.00 | 99 | 1017.0 |
| 20260905100003 | 62 | 4 | 1.0 | 2.0 | 0.00 | 0.04 | 0.00 | 99 | 1016.9 |
| 20260905095004 | 62 | 337 | 1.0 | 2.0 | 0.00 | 0.04 | 0.00 | 99 | 1016.9 |
| 20260905094004 | 62 | 27 | 1.0 | 2.0 | 0.00 | 0.04 | 0.00 | 99 | 1016.7 |
| 20260905093004 | 62 | 22 | 1.0 | 2.0 | 0.00 | 0.04 | 0.00 | 99 | 1016.8 |
| 20260905092003 | 62 | 354 | 1.0 | 2.0 | 0.00 | 0.04 | 0.00 | 99 | 1016.7 |
| 20260905091004 | 62 | 29 | 1.0 | 2.0 | 0.00 | 0.04 | 0.00 | 99 | 1016.9 |
| 20260905090004 | 62 | 3 | 1.0 | 2.0 | 0.00 | 0.04 | 0.00 | 99 | 1017.0 |
| 20260905085005 | 62 | 1 | 1.0 | 2.0 | 0.00 | 0.04 | 0.00 | 99 | 1017.1 |
| 20260905084004 | 62 | 23 | 1.0 | 2.0 | 0.00 | 0.04 | 0.00 | 99 | 1016.9 |
| 20260905083005 | 62 | 27 | 0.0 | 2.0 | 0.00 | 0.04 | 0.00 | 99 | 1017.0 |
| 20260905082005 | 62 | 28 | 1.0 | 2.0 | 0.00 | 0.04 | 0.00 | 99 | 1016.8 |
| 20260905081004 | 62 | 4 | 1.0 | 2.0 | 0.00 | 0.04 | 0.00 | 99 | 1016.8 |
| 20260905080004 | 62 | 351 | 1.0 | 2.0 | 0.00 | 0.04 | 0.00 | 99 | 1016.8 |
| 20260905075004 | 62 | 18 | 1.0 | 2.0 | 0.00 | 0.04 | 0.00 | 99 | 1016.9 |
| 20260905074004 | 63 | 327 | 1.0 | 2.0 | 0.00 | 0.04 | 0.00 | 99 | 1016.9 |
| 20260905073004 | 63 | 2 | 0.0 | 1.0 | 0.00 | 0.04 | 0.00 | 99 | 1016.8 |
| 20260905072004 | 63 | 358 | 1.0 | 1.0 | 0.00 | 0.04 | 0.00 | 99 | 1016.8 |
| 20260905071004 | 63 | 341 | 1.0 | 2.0 | 0.00 | 0.04 | 0.00 | 99 | 1016.8 |
| 20260905070003 | 63 | 352 | 1.0 | 2.0 | 0.00 | 0.04 | 0.00 | 99 | 1016.6 |
| 20260905065004 | 63 | 355 | 1.0 | 2.0 | 0.00 | 0.04 | 0.00 | 99 | 1016.6 |
| 20260905064004 | 63 | 25 | 1.0 | 1.0 | 0.00 | 0.05 | 0.00 | 99 | 1016.6 |
| 20260905063004 | 63 | 10 | 1.0 | 1.0 | 0.00 | 0.06 | 0.00 | 99 | 1016.6 |
| 20260905062004 | 63 | 0 | 0.0 | 2.0 | 0.00 | 0.06 | 0.00 | 99 | 1016.7 |
| 20260905061004 | 64 | 359 | 1.0 | 2.0 | 0.00 | 0.06 | 0.00 | 99 | 1016.5 |
| 20260905060004 | 64 | 23 | 1.0 | 2.0 | 0.00 | 0.06 | 0.00 | 99 | 1016.7 |
| 20260905055004 | 64 | 7 | 1.0 | 2.0 | 0.00 | 0.06 | 0.00 | 99 | 1016.7 |
| 20260905054004 | 64 | 319 | 1.0 | 1.0 | 0.00 | 0.06 | 0.00 | 99 | 1016.7 |
| 20260905053004 | 64 | 20 | 1.0 | 1.0 | 0.00 | 0.06 | 0.00 | 99 | 1016.5 |
| 20260905051004 | 64 | 326 | 0.0 | 2.0 | 0.00 | 0.06 | 0.00 | 99 | 1016.5 |
| 20260905050004 | 64 | 333 | 0.0 | 1.0 | 0.00 | 0.06 | 0.00 | 99 | 1016.4 |
| 20260905045004 | 64 | 33 | 0.0 | 1.0 | 0.00 | 0.06 | 0.06 | 99 | 1016.5 |